KOVL

Details ICAO KOVL
Name OLIVIA RGNL
Region United States
Timezone America/Chicago (UTC-6.0)
Plans Departing 26
Arriving 10
Stats Elevation 1,076 ft / 328 m (AMSL)
Location 44.778579° -95.032774°
Runways 1
Magnetic Variation 1.662° E
Sunrise 2017-12-12 13:50:01 UTC / 2017-12-12 07:50:01 Local
Sunset 2017-12-12 22:40:49 UTC / 2017-12-12 16:40:49 Local
Advertisement - Login to hide

Runways

ID Width Length Bearing (true) Bearing (mag) Surface Threshold Offset Overrun Length
11 75 ft / 23 m 3,493 ft / 1,065 m 118.18° 116.52° Asphalt 0 ft / 0 m 0 ft / 0 m
29 75 ft / 23 m 3,493 ft / 1,065 m 298.18° 296.52° Asphalt 0 ft / 0 m 0 ft / 0 m

Map

Weather


0- 5 10 15 20 25 30 35+ Temperature / ° C

Clouds and Precipitation
Forecast for 2017-12-12 12:00 UTC. Updated an hour ago

Ground ~20,000 ft ~40,000 ft Winds

METAR

KOVL 120835Z AUTO 30007KT 10SM CLR M12/M15 A3029 RMK AO2

TAF

Not found

Frequencies

Recorded 119.27 MHz AWOS 3
Unicom 122.80 MHz CTAF/UNICOM
Warning: Do not use this data for real-world aviation or navigation. No guarantee of current accuracy is given.